sensor_id;sensor_type;location;lat;lon;timestamp;P1;durP1;ratioP1;P2;durP2;ratioP2
48975;SDS011;34791;52.752;8.346;2023-02-12T00:00:06;27.67;;;9.80;;
48975;SDS011;34791;52.752;8.346;2023-02-12T00:02:32;24.30;;;10.13;;
48975;SDS011;34791;52.752;8.346;2023-02-12T00:04:58;31.13;;;11.90;;
48975;SDS011;34791;52.752;8.346;2023-02-12T00:07:23;34.97;;;12.03;;
48975;SDS011;34791;52.752;8.346;2023-02-12T00:09:49;33.33;;;11.17;;
48975;SDS011;34791;52.752;8.346;2023-02-12T00:12:14;32.23;;;11.13;;
48975;SDS011;34791;52.752;8.346;2023-02-12T00:14:40;30.83;;;12.87;;
48975;SDS011;34791;52.752;8.346;2023-02-12T00:17:05;26.40;;;12.30;;
48975;SDS011;34791;52.752;8.346;2023-02-12T00:19:30;33.43;;;11.40;;
48975;SDS011;34791;52.752;8.346;2023-02-12T00:21:56;32.83;;;10.60;;
48975;SDS011;34791;52.752;8.346;2023-02-12T00:24:21;32.53;;;11.93;;
48975;SDS011;34791;52.752;8.346;2023-02-12T00:26:47;30.87;;;12.10;;
48975;SDS011;34791;52.752;8.346;2023-02-12T00:29:13;29.27;;;11.10;;
48975;SDS011;34791;52.752;8.346;2023-02-12T00:31:39;27.33;;;12.70;;
48975;SDS011;34791;52.752;8.346;2023-02-12T00:34:04;33.13;;;13.47;;
48975;SDS011;34791;52.752;8.346;2023-02-12T00:36:30;32.13;;;12.60;;
48975;SDS011;34791;52.752;8.346;2023-02-12T00:38:56;33.60;;;12.67;;
48975;SDS011;34791;52.752;8.346;2023-02-12T00:41:22;32.97;;;13.67;;
48975;SDS011;34791;52.752;8.346;2023-02-12T00:43:48;36.37;;;10.60;;
48975;SDS011;34791;52.752;8.346;2023-02-12T00:46:14;29.73;;;12.53;;
48975;SDS011;34791;52.752;8.346;2023-02-12T00:48:39;36.03;;;12.97;;
48975;SDS011;34791;52.752;8.346;2023-02-12T00:51:05;39.87;;;14.07;;
48975;SDS011;34791;52.752;8.346;2023-02-12T00:53:31;38.77;;;12.80;;
48975;SDS011;34791;52.752;8.346;2023-02-12T00:55:56;37.47;;;13.30;;
48975;SDS011;34791;52.752;8.346;2023-02-12T00:58:22;32.60;;;11.60;;
48975;SDS011;34791;52.752;8.346;2023-02-12T01:00:48;35.93;;;12.53;;
48975;SDS011;34791;52.752;8.346;2023-02-12T01:03:14;38.60;;;12.27;;
48975;SDS011;34791;52.752;8.346;2023-02-12T01:05:40;30.57;;;13.03;;
48975;SDS011;34791;52.752;8.346;2023-02-12T01:08:06;44.00;;;13.97;;
48975;SDS011;34791;52.752;8.346;2023-02-12T01:10:31;42.20;;;13.60;;
48975;SDS011;34791;52.752;8.346;2023-02-12T01:12:57;42.87;;;14.33;;
48975;SDS011;34791;52.752;8.346;2023-02-12T01:15:23;45.90;;;14.60;;
48975;SDS011;34791;52.752;8.346;2023-02-12T01:17:51;42.07;;;14.87;;
48975;SDS011;34791;52.752;8.346;2023-02-12T01:20:18;42.77;;;13.60;;
48975;SDS011;34791;52.752;8.346;2023-02-12T01:22:45;41.93;;;13.93;;
48975;SDS011;34791;52.752;8.346;2023-02-12T01:25:10;37.43;;;13.73;;
48975;SDS011;34791;52.752;8.346;2023-02-12T01:27:36;53.10;;;16.40;;
48975;SDS011;34791;52.752;8.346;2023-02-12T01:30:02;37.73;;;14.07;;
48975;SDS011;34791;52.752;8.346;2023-02-12T01:32:29;49.83;;;14.97;;
48975;SDS011;34791;52.752;8.346;2023-02-12T01:34:54;55.60;;;16.17;;
48975;SDS011;34791;52.752;8.346;2023-02-12T01:37:20;51.63;;;16.67;;
48975;SDS011;34791;52.752;8.346;2023-02-12T01:39:45;65.53;;;18.10;;
48975;SDS011;34791;52.752;8.346;2023-02-12T01:42:11;43.20;;;15.20;;
48975;SDS011;34791;52.752;8.346;2023-02-12T01:44:42;53.30;;;16.97;;
48975;SDS011;34791;52.752;8.346;2023-02-12T01:47:27;47.17;;;16.80;;
48975;SDS011;34791;52.752;8.346;2023-02-12T01:49:52;42.27;;;16.23;;
48975;SDS011;34791;52.752;8.346;2023-02-12T01:52:22;43.80;;;15.33;;
48975;SDS011;34791;52.752;8.346;2023-02-12T01:54:52;55.53;;;16.57;;
48975;SDS011;34791;52.752;8.346;2023-02-12T01:57:20;41.97;;;14.77;;
48975;SDS011;34791;52.752;8.346;2023-02-12T01:59:47;49.20;;;16.70;;
48975;SDS011;34791;52.752;8.346;2023-02-12T02:02:15;49.47;;;15.60;;
48975;SDS011;34791;52.752;8.346;2023-02-12T02:04:47;47.27;;;15.83;;
48975;SDS011;34791;52.752;8.346;2023-02-12T02:07:16;52.30;;;16.70;;
48975;SDS011;34791;52.752;8.346;2023-02-12T02:09:42;37.20;;;13.17;;
48975;SDS011;34791;52.752;8.346;2023-02-12T02:12:08;46.40;;;14.87;;
48975;SDS011;34791;52.752;8.346;2023-02-12T02:14:53;52.07;;;15.60;;
48975;SDS011;34791;52.752;8.346;2023-02-12T02:27:39;43.33;;;15.53;;
48975;SDS011;34791;52.752;8.346;2023-02-12T02:30:24;55.47;;;15.70;;
48975;SDS011;34791;52.752;8.346;2023-02-12T02:33:02;52.63;;;16.13;;
48975;SDS011;34791;52.752;8.346;2023-02-12T02:35:34;52.60;;;15.80;;
48975;SDS011;34791;52.752;8.346;2023-02-12T02:41:05;55.53;;;15.87;;
48975;SDS011;34791;52.752;8.346;2023-02-12T02:43:39;52.53;;;15.10;;
48975;SDS011;34791;52.752;8.346;2023-02-12T02:46:09;51.67;;;15.93;;
48975;SDS011;34791;52.752;8.346;2023-02-12T02:48:47;46.90;;;15.45;;
48975;SDS011;34791;52.752;8.346;2023-02-12T02:51:20;49.13;;;15.77;;
48975;SDS011;34791;52.752;8.346;2023-02-12T02:53:52;47.47;;;15.13;;
48975;SDS011;34791;52.752;8.346;2023-02-12T02:56:22;51.22;;;15.02;;
48975;SDS011;34791;52.752;8.346;2023-02-12T02:59:00;48.10;;;14.80;;
48975;SDS011;34791;52.752;8.346;2023-02-12T03:01:39;58.13;;;16.30;;
48975;SDS011;34791;52.752;8.346;2023-02-12T03:04:14;55.10;;;16.10;;
48975;SDS011;34791;52.752;8.346;2023-02-12T03:06:46;56.70;;;16.63;;
48975;SDS011;34791;52.752;8.346;2023-02-12T03:09:21;61.60;;;15.80;;
48975;SDS011;34791;52.752;8.346;2023-02-12T03:11:52;55.57;;;15.97;;
48975;SDS011;34791;52.752;8.346;2023-02-12T03:14:25;55.67;;;16.13;;
48975;SDS011;34791;52.752;8.346;2023-02-12T03:22:25;63.00;;;18.13;;
48975;SDS011;34791;52.752;8.346;2023-02-12T03:29:58;76.27;;;16.97;;
48975;SDS011;34791;52.752;8.346;2023-02-12T03:32:28;76.10;;;17.67;;
48975;SDS011;34791;52.752;8.346;2023-02-12T03:35:13;71.00;;;17.20;;
48975;SDS011;34791;52.752;8.346;2023-02-12T03:40:36;78.93;;;18.37;;
48975;SDS011;34791;52.752;8.346;2023-02-12T03:43:22;59.77;;;17.30;;
48975;SDS011;34791;52.752;8.346;2023-02-12T03:48:25;79.90;;;18.20;;
48975;SDS011;34791;52.752;8.346;2023-02-12T03:51:29;63.40;;;18.37;;
48975;SDS011;34791;52.752;8.346;2023-02-12T03:54:01;65.70;;;17.63;;
48975;SDS011;34791;52.752;8.346;2023-02-12T03:59:08;74.97;;;18.30;;
48975;SDS011;34791;52.752;8.346;2023-02-12T04:01:34;80.77;;;19.43;;
48975;SDS011;34791;52.752;8.346;2023-02-12T04:04:04;75.43;;;17.63;;
48975;SDS011;34791;52.752;8.346;2023-02-12T04:06:31;83.10;;;18.95;;
48975;SDS011;34791;52.752;8.346;2023-02-12T04:08:58;76.73;;;18.23;;
48975;SDS011;34791;52.752;8.346;2023-02-12T04:19:16;70.03;;;18.42;;
48975;SDS011;34791;52.752;8.346;2023-02-12T04:21:52;79.67;;;18.40;;
48975;SDS011;34791;52.752;8.346;2023-02-12T04:32:30;73.53;;;19.48;;
48975;SDS011;34791;52.752;8.346;2023-02-12T04:35:04;67.17;;;18.57;;
48975;SDS011;34791;52.752;8.346;2023-02-12T04:40:06;84.00;;;20.57;;
48975;SDS011;34791;52.752;8.346;2023-02-12T04:42:48;91.93;;;21.13;;
48975;SDS011;34791;52.752;8.346;2023-02-12T04:45:36;85.17;;;20.57;;
48975;SDS011;34791;52.752;8.346;2023-02-12T04:48:02;71.27;;;20.00;;
48975;SDS011;34791;52.752;8.346;2023-02-12T04:50:34;87.63;;;21.17;;
48975;SDS011;34791;52.752;8.346;2023-02-12T04:53:03;92.20;;;21.20;;
48975;SDS011;34791;52.752;8.346;2023-02-12T04:55:28;72.87;;;20.53;;
48975;SDS011;34791;52.752;8.346;2023-02-12T04:57:54;76.80;;;20.90;;
48975;SDS011;34791;52.752;8.346;2023-02-12T05:00:19;85.73;;;21.87;;
48975;SDS011;34791;52.752;8.346;2023-02-12T05:02:44;75.37;;;22.43;;
48975;SDS011;34791;52.752;8.346;2023-02-12T05:05:10;100.07;;;22.97;;
48975;SDS011;34791;52.752;8.346;2023-02-12T05:07:35;93.20;;;21.77;;
48975;SDS011;34791;52.752;8.346;2023-02-12T05:10:01;93.40;;;23.57;;
48975;SDS011;34791;52.752;8.346;2023-02-12T05:12:26;96.53;;;24.50;;
48975;SDS011;34791;52.752;8.346;2023-02-12T05:14:52;96.40;;;23.87;;
48975;SDS011;34791;52.752;8.346;2023-02-12T05:17:17;105.07;;;24.30;;
48975;SDS011;34791;52.752;8.346;2023-02-12T05:19:46;100.77;;;23.57;;
48975;SDS011;34791;52.752;8.346;2023-02-12T05:22:12;110.03;;;25.23;;
48975;SDS011;34791;52.752;8.346;2023-02-12T05:24:37;128.37;;;26.10;;
48975;SDS011;34791;52.752;8.346;2023-02-12T05:27:02;144.00;;;26.10;;
48975;SDS011;34791;52.752;8.346;2023-02-12T05:29:28;138.00;;;26.67;;
48975;SDS011;34791;52.752;8.346;2023-02-12T05:31:53;170.90;;;27.70;;
48975;SDS011;34791;52.752;8.346;2023-02-12T05:34:19;163.17;;;27.87;;
48975;SDS011;34791;52.752;8.346;2023-02-12T05:36:44;185.03;;;28.93;;
48975;SDS011;34791;52.752;8.346;2023-02-12T05:39:09;163.77;;;28.53;;
48975;SDS011;34791;52.752;8.346;2023-02-12T05:41:35;153.33;;;27.67;;
48975;SDS011;34791;52.752;8.346;2023-02-12T05:44:01;140.47;;;27.33;;
48975;SDS011;34791;52.752;8.346;2023-02-12T05:46:27;166.03;;;28.83;;
48975;SDS011;34791;52.752;8.346;2023-02-12T05:48:53;163.00;;;29.07;;
48975;SDS011;34791;52.752;8.346;2023-02-12T05:51:19;184.80;;;29.27;;
48975;SDS011;34791;52.752;8.346;2023-02-12T05:53:47;177.43;;;30.60;;
48975;SDS011;34791;52.752;8.346;2023-02-12T05:56:16;195.97;;;30.63;;
48975;SDS011;34791;52.752;8.346;2023-02-12T05:59:02;202.93;;;31.63;;
48975;SDS011;34791;52.752;8.346;2023-02-12T06:01:31;211.90;;;32.20;;
48975;SDS011;34791;52.752;8.346;2023-02-12T06:03:58;200.90;;;31.83;;
48975;SDS011;34791;52.752;8.346;2023-02-12T06:06:25;238.10;;;32.73;;
48975;SDS011;34791;52.752;8.346;2023-02-12T06:08:51;175.27;;;29.70;;
48975;SDS011;34791;52.752;8.346;2023-02-12T06:11:17;229.33;;;33.73;;
48975;SDS011;34791;52.752;8.346;2023-02-12T06:13:43;205.47;;;31.07;;
48975;SDS011;34791;52.752;8.346;2023-02-12T06:16:26;187.33;;;31.90;;
48975;SDS011;34791;52.752;8.346;2023-02-12T06:18:53;192.50;;;30.87;;
48975;SDS011;34791;52.752;8.346;2023-02-12T06:21:19;178.87;;;30.47;;
48975;SDS011;34791;52.752;8.346;2023-02-12T06:23:46;167.77;;;29.30;;
48975;SDS011;34791;52.752;8.346;2023-02-12T06:26:12;146.70;;;29.03;;
48975;SDS011;34791;52.752;8.346;2023-02-12T06:28:38;164.10;;;28.80;;
48975;SDS011;34791;52.752;8.346;2023-02-12T06:31:03;141.07;;;29.10;;
48975;SDS011;34791;52.752;8.346;2023-02-12T06:33:29;186.07;;;30.03;;
48975;SDS011;34791;52.752;8.346;2023-02-12T06:35:55;156.87;;;28.83;;
48975;SDS011;34791;52.752;8.346;2023-02-12T06:38:20;159.33;;;28.47;;
48975;SDS011;34791;52.752;8.346;2023-02-12T06:40:45;153.17;;;29.43;;
48975;SDS011;34791;52.752;8.346;2023-02-12T06:43:11;149.47;;;27.70;;
48975;SDS011;34791;52.752;8.346;2023-02-12T06:45:36;133.33;;;27.47;;
48975;SDS011;34791;52.752;8.346;2023-02-12T06:48:02;160.33;;;28.00;;
48975;SDS011;34791;52.752;8.346;2023-02-12T06:50:28;123.80;;;26.23;;
48975;SDS011;34791;52.752;8.346;2023-02-12T06:52:54;139.97;;;26.73;;
48975;SDS011;34791;52.752;8.346;2023-02-12T06:55:19;135.93;;;27.83;;
48975;SDS011;34791;52.752;8.346;2023-02-12T06:57:44;148.80;;;27.93;;
48975;SDS011;34791;52.752;8.346;2023-02-12T07:00:10;146.57;;;28.57;;
48975;SDS011;34791;52.752;8.346;2023-02-12T07:02:36;151.70;;;27.67;;
48975;SDS011;34791;52.752;8.346;2023-02-12T07:05:01;141.60;;;26.87;;
48975;SDS011;34791;52.752;8.346;2023-02-12T07:07:26;161.00;;;28.53;;
48975;SDS011;34791;52.752;8.346;2023-02-12T07:09:52;149.40;;;25.93;;
48975;SDS011;34791;52.752;8.346;2023-02-12T07:12:17;167.17;;;28.33;;
48975;SDS011;34791;52.752;8.346;2023-02-12T07:14:42;168.33;;;27.37;;
48975;SDS011;34791;52.752;8.346;2023-02-12T07:17:08;184.50;;;28.80;;
48975;SDS011;34791;52.752;8.346;2023-02-12T07:19:34;143.57;;;27.60;;
48975;SDS011;34791;52.752;8.346;2023-02-12T07:21:59;158.93;;;28.60;;
48975;SDS011;34791;52.752;8.346;2023-02-12T07:24:25;149.73;;;27.80;;
48975;SDS011;34791;52.752;8.346;2023-02-12T07:26:50;117.33;;;25.07;;
48975;SDS011;34791;52.752;8.346;2023-02-12T07:29:16;144.17;;;28.10;;
48975;SDS011;34791;52.752;8.346;2023-02-12T07:31:41;121.73;;;24.77;;
48975;SDS011;34791;52.752;8.346;2023-02-12T07:34:08;118.90;;;24.90;;
48975;SDS011;34791;52.752;8.346;2023-02-12T07:36:34;125.87;;;26.80;;
48975;SDS011;34791;52.752;8.346;2023-02-12T07:38:59;134.23;;;26.20;;
48975;SDS011;34791;52.752;8.346;2023-02-12T07:41:29;102.70;;;24.20;;
48975;SDS011;34791;52.752;8.346;2023-02-12T07:43:56;121.13;;;25.07;;
48975;SDS011;34791;52.752;8.346;2023-02-12T07:46:25;119.77;;;24.80;;
48975;SDS011;34791;52.752;8.346;2023-02-12T07:48:58;117.13;;;25.42;;
48975;SDS011;34791;52.752;8.346;2023-02-12T07:51:25;100.63;;;24.70;;
48975;SDS011;34791;52.752;8.346;2023-02-12T07:53:51;103.93;;;24.00;;
48975;SDS011;34791;52.752;8.346;2023-02-12T07:56:17;78.70;;;22.63;;
48975;SDS011;34791;52.752;8.346;2023-02-12T07:58:45;89.67;;;22.93;;
48975;SDS011;34791;52.752;8.346;2023-02-12T08:01:12;96.40;;;24.10;;
48975;SDS011;34791;52.752;8.346;2023-02-12T08:03:40;92.67;;;24.10;;
48975;SDS011;34791;52.752;8.346;2023-02-12T08:06:09;88.87;;;22.77;;
48975;SDS011;34791;52.752;8.346;2023-02-12T08:08:36;95.97;;;23.77;;
48975;SDS011;34791;52.752;8.346;2023-02-12T08:11:03;94.53;;;23.50;;
48975;SDS011;34791;52.752;8.346;2023-02-12T08:13:33;80.97;;;21.60;;
48975;SDS011;34791;52.752;8.346;2023-02-12T08:16:06;86.73;;;22.53;;
48975;SDS011;34791;52.752;8.346;2023-02-12T08:18:33;94.10;;;23.93;;
48975;SDS011;34791;52.752;8.346;2023-02-12T08:21:05;83.50;;;23.23;;
48975;SDS011;34791;52.752;8.346;2023-02-12T08:23:39;83.63;;;21.43;;
48975;SDS011;34791;52.752;8.346;2023-02-12T08:28:41;72.47;;;20.30;;
48975;SDS011;34791;52.752;8.346;2023-02-12T08:31:15;72.90;;;21.30;;
48975;SDS011;34791;52.752;8.346;2023-02-12T08:33:45;83.30;;;22.60;;
48975;SDS011;34791;52.752;8.346;2023-02-12T08:36:13;88.27;;;22.57;;
48975;SDS011;34791;52.752;8.346;2023-02-12T08:38:40;70.33;;;20.87;;
48975;SDS011;34791;52.752;8.346;2023-02-12T08:41:08;80.30;;;22.57;;
48975;SDS011;34791;52.752;8.346;2023-02-12T08:43:36;70.07;;;20.87;;
48975;SDS011;34791;52.752;8.346;2023-02-12T08:46:10;73.20;;;22.10;;
48975;SDS011;34791;52.752;8.346;2023-02-12T08:48:56;59.43;;;21.20;;
48975;SDS011;34791;52.752;8.346;2023-02-12T08:51:24;66.53;;;21.20;;
48975;SDS011;34791;52.752;8.346;2023-02-12T08:53:58;61.30;;;20.90;;
48975;SDS011;34791;52.752;8.346;2023-02-12T08:56:25;58.93;;;21.07;;
48975;SDS011;34791;52.752;8.346;2023-02-12T08:58:52;59.40;;;19.87;;
48975;SDS011;34791;52.752;8.346;2023-02-12T09:01:19;61.23;;;18.93;;
48975;SDS011;34791;52.752;8.346;2023-02-12T09:03:47;55.67;;;19.70;;
48975;SDS011;34791;52.752;8.346;2023-02-12T09:06:13;55.67;;;19.47;;
48975;SDS011;34791;52.752;8.346;2023-02-12T09:08:40;47.23;;;17.27;;
48975;SDS011;34791;52.752;8.346;2023-02-12T09:11:06;45.87;;;17.20;;
48975;SDS011;34791;52.752;8.346;2023-02-12T09:13:34;46.03;;;17.73;;
48975;SDS011;34791;52.752;8.346;2023-02-12T09:16:00;48.97;;;17.03;;
48975;SDS011;34791;52.752;8.346;2023-02-12T09:18:27;39.83;;;16.47;;
48975;SDS011;34791;52.752;8.346;2023-02-12T09:20:53;40.77;;;15.87;;
48975;SDS011;34791;52.752;8.346;2023-02-12T09:23:18;39.80;;;16.20;;
48975;SDS011;34791;52.752;8.346;2023-02-12T09:25:44;37.30;;;16.27;;
48975;SDS011;34791;52.752;8.346;2023-02-12T09:28:11;44.27;;;16.43;;
48975;SDS011;34791;52.752;8.346;2023-02-12T09:30:38;47.17;;;17.37;;
48975;SDS011;34791;52.752;8.346;2023-02-12T09:33:04;38.27;;;16.10;;
48975;SDS011;34791;52.752;8.346;2023-02-12T09:35:32;35.37;;;15.67;;
48975;SDS011;34791;52.752;8.346;2023-02-12T09:37:58;41.83;;;15.47;;
48975;SDS011;34791;52.752;8.346;2023-02-12T09:40:30;47.03;;;17.27;;
48975;SDS011;34791;52.752;8.346;2023-02-12T09:43:08;47.13;;;17.50;;
48975;SDS011;34791;52.752;8.346;2023-02-12T09:45:41;31.53;;;13.70;;
48975;SDS011;34791;52.752;8.346;2023-02-12T09:48:17;38.57;;;15.60;;
48975;SDS011;34791;52.752;8.346;2023-02-12T09:51:11;28.63;;;13.50;;
48975;SDS011;34791;52.752;8.346;2023-02-12T09:53:38;32.80;;;14.80;;
48975;SDS011;34791;52.752;8.346;2023-02-12T09:56:14;30.57;;;13.90;;
48975;SDS011;34791;52.752;8.346;2023-02-12T09:58:54;32.50;;;13.67;;
48975;SDS011;34791;52.752;8.346;2023-02-12T10:01:25;34.57;;;14.17;;
48975;SDS011;34791;52.752;8.346;2023-02-12T10:03:51;31.50;;;13.97;;
48975;SDS011;34791;52.752;8.346;2023-02-12T10:06:21;38.03;;;18.97;;
48975;SDS011;34791;52.752;8.346;2023-02-12T10:11:46;26.53;;;13.33;;
48975;SDS011;34791;52.752;8.346;2023-02-12T10:25:18;28.17;;;13.30;;
48975;SDS011;34791;52.752;8.346;2023-02-12T10:28:12;34.13;;;14.70;;
48975;SDS011;34791;52.752;8.346;2023-02-12T10:30:42;29.50;;;14.67;;
48975;SDS011;34791;52.752;8.346;2023-02-12T10:33:18;26.57;;;11.73;;
48975;SDS011;34791;52.752;8.346;2023-02-12T10:35:49;26.73;;;12.93;;
48975;SDS011;34791;52.752;8.346;2023-02-12T10:38:20;27.80;;;13.48;;
48975;SDS011;34791;52.752;8.346;2023-02-12T10:40:51;23.30;;;12.77;;
48975;SDS011;34791;52.752;8.346;2023-02-12T10:43:19;23.73;;;11.63;;
48975;SDS011;34791;52.752;8.346;2023-02-12T10:45:44;21.70;;;10.20;;
48975;SDS011;34791;52.752;8.346;2023-02-12T10:53:29;21.77;;;10.80;;
48975;SDS011;34791;52.752;8.346;2023-02-12T10:58:35;21.83;;;11.27;;
48975;SDS011;34791;52.752;8.346;2023-02-12T11:01:03;21.63;;;10.57;;
48975;SDS011;34791;52.752;8.346;2023-02-12T11:03:30;21.83;;;11.23;;
48975;SDS011;34791;52.752;8.346;2023-02-12T11:06:35;17.30;;;9.73;;
48975;SDS011;34791;52.752;8.346;2023-02-12T11:08:58;16.53;;;8.30;;
48975;SDS011;34791;52.752;8.346;2023-02-12T11:11:27;14.00;;;9.10;;
48975;SDS011;34791;52.752;8.346;2023-02-12T11:16:56;14.53;;;8.03;;
48975;SDS011;34791;52.752;8.346;2023-02-12T11:19:30;13.43;;;7.73;;
48975;SDS011;34791;52.752;8.346;2023-02-12T11:22:11;13.97;;;7.97;;
48975;SDS011;34791;52.752;8.346;2023-02-12T11:24:42;15.87;;;8.80;;
48975;SDS011;34791;52.752;8.346;2023-02-12T11:29:46;14.17;;;7.90;;
48975;SDS011;34791;52.752;8.346;2023-02-12T11:32:36;20.07;;;8.73;;
48975;SDS011;34791;52.752;8.346;2023-02-12T11:37:56;16.30;;;8.67;;
48975;SDS011;34791;52.752;8.346;2023-02-12T11:40:23;12.73;;;6.70;;
48975;SDS011;34791;52.752;8.346;2023-02-12T11:42:55;12.83;;;5.77;;
48975;SDS011;34791;52.752;8.346;2023-02-12T11:45:28;13.57;;;7.07;;
48975;SDS011;34791;52.752;8.346;2023-02-12T11:47:56;14.13;;;8.30;;
48975;SDS011;34791;52.752;8.346;2023-02-12T11:50:27;14.80;;;7.17;;
48975;SDS011;34791;52.752;8.346;2023-02-12T11:53:05;17.10;;;8.73;;
48975;SDS011;34791;52.752;8.346;2023-02-12T11:55:34;14.03;;;8.00;;
48975;SDS011;34791;52.752;8.346;2023-02-12T11:58:25;15.40;;;7.60;;
48975;SDS011;34791;52.752;8.346;2023-02-12T12:03:54;14.10;;;7.07;;
48975;SDS011;34791;52.752;8.346;2023-02-12T12:16:59;14.20;;;8.10;;
48975;SDS011;34791;52.752;8.346;2023-02-12T12:20:16;17.07;;;8.80;;
48975;SDS011;34791;52.752;8.346;2023-02-12T12:25:24;17.90;;;9.77;;
48975;SDS011;34791;52.752;8.346;2023-02-12T12:30:52;13.40;;;7.23;;
48975;SDS011;34791;52.752;8.346;2023-02-12T12:33:38;13.67;;;7.33;;
48975;SDS011;34791;52.752;8.346;2023-02-12T12:49:10;14.77;;;6.87;;
48975;SDS011;34791;52.752;8.346;2023-02-12T12:54:54;12.57;;;5.77;;
48975;SDS011;34791;52.752;8.346;2023-02-12T13:03:02;11.23;;;5.70;;
48975;SDS011;34791;52.752;8.346;2023-02-12T13:08:59;12.00;;;6.30;;
48975;SDS011;34791;52.752;8.346;2023-02-12T13:11:48;10.37;;;5.30;;
48975;SDS011;34791;52.752;8.346;2023-02-12T13:14:26;9.80;;;4.63;;
48975;SDS011;34791;52.752;8.346;2023-02-12T13:17:19;10.50;;;4.80;;
48975;SDS011;34791;52.752;8.346;2023-02-12T13:22:43;12.77;;;5.70;;
48975;SDS011;34791;52.752;8.346;2023-02-12T13:27:51;12.60;;;6.00;;
48975;SDS011;34791;52.752;8.346;2023-02-12T13:32:48;12.17;;;6.33;;
48975;SDS011;34791;52.752;8.346;2023-02-12T13:35:25;12.53;;;6.13;;
48975;SDS011;34791;52.752;8.346;2023-02-12T13:37:55;12.80;;;6.00;;
48975;SDS011;34791;52.752;8.346;2023-02-12T13:40:22;12.47;;;6.47;;
48975;SDS011;34791;52.752;8.346;2023-02-12T14:02:00;11.47;;;6.23;;
48975;SDS011;34791;52.752;8.346;2023-02-12T14:07:17;10.43;;;5.23;;
48975;SDS011;34791;52.752;8.346;2023-02-12T14:14:50;13.80;;;6.20;;
48975;SDS011;34791;52.752;8.346;2023-02-12T14:27:50;14.03;;;6.57;;
48975;SDS011;34791;52.752;8.346;2023-02-12T14:32:58;12.37;;;6.20;;
48975;SDS011;34791;52.752;8.346;2023-02-12T14:35:33;13.43;;;6.77;;
48975;SDS011;34791;52.752;8.346;2023-02-12T14:38:02;15.60;;;7.70;;
48975;SDS011;34791;52.752;8.346;2023-02-12T14:40:52;17.47;;;7.63;;
48975;SDS011;34791;52.752;8.346;2023-02-12T14:46:59;16.33;;;7.87;;
48975;SDS011;34791;52.752;8.346;2023-02-12T14:49:43;18.03;;;8.60;;
48975;SDS011;34791;52.752;8.346;2023-02-12T14:54:51;14.57;;;7.80;;
48975;SDS011;34791;52.752;8.346;2023-02-12T15:00:47;19.50;;;9.07;;
48975;SDS011;34791;52.752;8.346;2023-02-12T15:03:18;20.43;;;9.43;;
48975;SDS011;34791;52.752;8.346;2023-02-12T15:09:28;22.63;;;10.67;;
48975;SDS011;34791;52.752;8.346;2023-02-12T15:14:30;20.40;;;9.30;;
48975;SDS011;34791;52.752;8.346;2023-02-12T15:17:14;20.33;;;9.17;;
48975;SDS011;34791;52.752;8.346;2023-02-12T15:19:54;18.03;;;8.80;;
48975;SDS011;34791;52.752;8.346;2023-02-12T15:22:34;18.55;;;8.43;;
48975;SDS011;34791;52.752;8.346;2023-02-12T15:27:56;18.37;;;8.37;;
48975;SDS011;34791;52.752;8.346;2023-02-12T15:30:28;19.17;;;8.40;;
48975;SDS011;34791;52.752;8.346;2023-02-12T15:32:56;20.30;;;8.73;;
48975;SDS011;34791;52.752;8.346;2023-02-12T15:35:28;15.07;;;7.67;;
48975;SDS011;34791;52.752;8.346;2023-02-12T15:37:56;18.40;;;7.60;;
48975;SDS011;34791;52.752;8.346;2023-02-12T15:40:25;16.27;;;8.00;;
48975;SDS011;34791;52.752;8.346;2023-02-12T15:42:56;13.63;;;6.53;;
48975;SDS011;34791;52.752;8.346;2023-02-12T15:45:24;14.70;;;6.83;;
48975;SDS011;34791;52.752;8.346;2023-02-12T15:48:11;14.60;;;6.87;;
48975;SDS011;34791;52.752;8.346;2023-02-12T15:53:29;14.23;;;6.40;;
48975;SDS011;34791;52.752;8.346;2023-02-12T15:55:55;13.30;;;5.90;;
48975;SDS011;34791;52.752;8.346;2023-02-12T15:58:25;16.00;;;6.27;;
48975;SDS011;34791;52.752;8.346;2023-02-12T16:00:59;14.60;;;6.83;;
48975;SDS011;34791;52.752;8.346;2023-02-12T16:03:30;15.30;;;7.82;;
48975;SDS011;34791;52.752;8.346;2023-02-12T16:06:07;14.52;;;6.07;;
48975;SDS011;34791;52.752;8.346;2023-02-12T16:08:48;15.90;;;6.77;;
48975;SDS011;34791;52.752;8.346;2023-02-12T16:11:18;13.33;;;6.73;;
48975;SDS011;34791;52.752;8.346;2023-02-12T16:13:55;17.23;;;7.07;;
48975;SDS011;34791;52.752;8.346;2023-02-12T16:16:24;14.97;;;6.63;;
48975;SDS011;34791;52.752;8.346;2023-02-12T16:19:05;17.30;;;6.50;;
48975;SDS011;34791;52.752;8.346;2023-02-12T16:21:46;17.30;;;6.43;;
48975;SDS011;34791;52.752;8.346;2023-02-12T16:24:32;13.67;;;6.80;;
48975;SDS011;34791;52.752;8.346;2023-02-12T16:27:06;14.63;;;7.30;;
48975;SDS011;34791;52.752;8.346;2023-02-12T16:29:36;13.33;;;6.70;;
48975;SDS011;34791;52.752;8.346;2023-02-12T16:32:24;14.97;;;6.80;;
48975;SDS011;34791;52.752;8.346;2023-02-12T16:34:58;15.40;;;7.20;;
48975;SDS011;34791;52.752;8.346;2023-02-12T16:40:09;14.73;;;6.77;;
48975;SDS011;34791;52.752;8.346;2023-02-12T16:48:01;17.13;;;7.20;;
48975;SDS011;34791;52.752;8.346;2023-02-12T16:50:37;14.03;;;7.00;;
48975;SDS011;34791;52.752;8.346;2023-02-12T16:53:25;15.73;;;7.53;;
48975;SDS011;34791;52.752;8.346;2023-02-12T16:55:58;15.47;;;7.13;;
48975;SDS011;34791;52.752;8.346;2023-02-12T16:58:24;17.23;;;7.37;;
48975;SDS011;34791;52.752;8.346;2023-02-12T17:00:51;17.50;;;7.40;;
48975;SDS011;34791;52.752;8.346;2023-02-12T17:03:18;14.23;;;6.83;;
48975;SDS011;34791;52.752;8.346;2023-02-12T17:05:44;16.47;;;8.00;;
48975;SDS011;34791;52.752;8.346;2023-02-12T17:08:14;19.53;;;9.00;;
48975;SDS011;34791;52.752;8.346;2023-02-12T17:10:42;18.65;;;8.68;;
48975;SDS011;34791;52.752;8.346;2023-02-12T17:13:08;16.70;;;7.80;;
48975;SDS011;34791;52.752;8.346;2023-02-12T17:15:54;18.70;;;8.20;;
48975;SDS011;34791;52.752;8.346;2023-02-12T17:18:21;15.50;;;7.63;;
48975;SDS011;34791;52.752;8.346;2023-02-12T17:20:52;19.03;;;8.07;;
48975;SDS011;34791;52.752;8.346;2023-02-12T17:23:22;18.57;;;8.30;;
48975;SDS011;34791;52.752;8.346;2023-02-12T17:25:49;19.27;;;8.13;;
48975;SDS011;34791;52.752;8.346;2023-02-12T17:28:14;18.93;;;7.67;;
48975;SDS011;34791;52.752;8.346;2023-02-12T17:30:42;16.40;;;7.47;;
48975;SDS011;34791;52.752;8.346;2023-02-12T17:33:07;19.17;;;7.70;;
48975;SDS011;34791;52.752;8.346;2023-02-12T17:35:39;17.10;;;8.20;;
48975;SDS011;34791;52.752;8.346;2023-02-12T17:38:05;14.53;;;7.97;;
48975;SDS011;34791;52.752;8.346;2023-02-12T17:40:31;16.10;;;7.23;;
48975;SDS011;34791;52.752;8.346;2023-02-12T17:42:59;16.57;;;7.40;;
48975;SDS011;34791;52.752;8.346;2023-02-12T17:45:24;13.43;;;7.20;;
48975;SDS011;34791;52.752;8.346;2023-02-12T17:47:50;17.37;;;7.37;;
48975;SDS011;34791;52.752;8.346;2023-02-12T17:50:15;17.27;;;8.83;;
48975;SDS011;34791;52.752;8.346;2023-02-12T17:52:42;19.10;;;8.87;;
48975;SDS011;34791;52.752;8.346;2023-02-12T17:55:07;18.90;;;9.70;;
48975;SDS011;34791;52.752;8.346;2023-02-12T17:57:35;22.53;;;9.93;;
48975;SDS011;34791;52.752;8.346;2023-02-12T18:00:01;20.50;;;9.20;;
48975;SDS011;34791;52.752;8.346;2023-02-12T18:02:26;17.67;;;9.43;;
48975;SDS011;34791;52.752;8.346;2023-02-12T18:04:52;20.13;;;9.47;;